Time;durP1;ratioP1;P1;durP2;ratioP2;P2;SDS_P1;SDS_P2;PMS_P1;PMS_P2;Temp;Humidity;BMP_temperature;BMP_pressure;BME280_temperature;BME280_humidity;BME280_pressure;Samples;Min_cycle;Max_cycle;Signal;HPM_P1;HPM_P2
2023/01/25 00:02:59;;;;;;;87.50;73.30;;;;;;;2.25;73.12;102564.00;109569;1272;22402;-83
2023/01/25 00:06:27;;;;;;;93.70;74.00;;;;;;;2.23;73.29;102561.39;110379;1266;21976;-83
2023/01/25 00:09:33;;;;;;;89.10;74.70;;;;;;;2.23;73.29;102562.91;110239;1266;21989;-83
2023/01/25 00:12:24;;;;;;;91.50;74.90;;;;;;;2.23;73.31;102559.15;111142;1255;21987;-83
2023/01/25 00:15:04;;;;;;;91.30;77.60;;;;;;;2.26;73.27;102557.04;111472;1255;23657;-82
2023/01/25 00:17:45;;;;;;;88.60;76.90;;;;;;;2.30;73.27;102551.30;111531;1255;24908;-83
2023/01/25 00:20:31;;;;;;;92.80;75.90;;;;;;;2.28;73.08;102540.07;111458;1255;23666;-83
2023/01/25 00:23:31;;;;;;;86.70;74.40;;;;;;;2.27;73.09;102533.86;111642;1255;22789;-83
2023/01/25 00:26:44;;;;;;;81.30;71.80;;;;;;;2.25;73.23;102530.88;111411;1256;21980;-83
2023/01/25 00:29:50;;;;;;;;;;;;;;;;;;;;;
2023/01/25 00:33:26;;;;;;;90.90;75.40;;;;;;;2.25;73.31;102516.10;110742;1264;22675;-82
2023/01/25 00:36:45;;;;;;;88.00;74.70;;;;;;;2.26;73.38;102503.05;109932;1269;21977;-83
2023/01/25 00:39:47;;;;;;;92.40;74.80;;;;;;;2.27;73.38;102500.16;110196;1269;22463;-82
2023/01/25 00:42:41;;;;;;;85.40;74.20;;;;;;;2.29;73.32;102493.53;109725;1272;21887;-83
2023/01/25 00:45:35;;;;;;;91.10;75.90;;;;;;;2.29;73.26;102491.48;109699;1273;22993;-83
2023/01/25 00:48:31;;;;;;;92.70;76.40;;;;;;;2.30;73.28;102493.73;109691;1272;23819;-81
2023/01/25 00:51:34;;;;;;;;;;;;;;;;;;;;;
2023/01/25 00:54:21;;;;;;;86.70;74.80;;;;;;;2.29;73.14;102492.50;109240;1273;22452;-82
2023/01/25 00:57:06;;;;;;;91.20;77.50;;;;;;;2.29;73.10;102495.42;109493;1273;21958;-81
2023/01/25 00:59:49;;;;;;;89.00;76.10;;;;;;;2.29;73.07;102503.15;109316;1273;23611;-82
2023/01/25 01:06:15;;;;;;;93.40;74.70;;;;;;;2.27;73.28;102505.50;109754;1265;21980;-83
2023/01/25 01:09:13;;;;;;;88.90;74.70;;;;;;;2.28;73.30;102509.82;110408;1261;22734;-83
2023/01/25 01:12:09;;;;;;;90.90;74.80;;;;;;;2.28;73.33;102508.79;110966;1261;22328;-84
2023/01/25 01:15:23;;;;;;;87.80;73.90;;;;;;;2.27;73.38;102507.91;110543;1266;23046;-84
2023/01/25 01:18:27;;;;;;;80.80;69.60;;;;;;;2.22;73.28;102507.25;110714;1257;21967;-84
2023/01/25 01:21:21;;;;;;;94.20;76.60;;;;;;;2.23;73.30;102505.36;111050;1260;22169;-83
2023/01/25 01:24:21;;;;;;;95.70;79.50;;;;;;;2.22;73.32;102505.35;111076;1260;21975;-83
2023/01/25 01:27:17;;;;;;;92.60;74.80;;;;;;;2.17;73.24;102503.83;110866;1261;22061;-81
2023/01/25 01:30:10;;;;;;;81.60;68.20;;;;;;;2.15;73.31;102505.29;110409;1266;21978;-84
2023/01/25 01:32:56;;;;;;;75.40;67.00;;;;;;;2.16;73.36;102502.40;110504;1262;22124;-82
2023/01/25 01:35:57;;;;;;;79.20;70.20;;;;;;;2.18;73.45;102496.27;110740;1265;21982;-83
2023/01/25 01:38:51;;;;;;;83.40;69.50;;;;;;;2.16;73.37;102495.38;110596;1260;22452;-82
2023/01/25 01:42:23;;;;;;;82.20;68.80;;;;;;;2.14;73.38;102497.89;110931;1250;23757;-82
2023/01/25 01:45:48;;;;;;;79.40;66.60;;;;;;;2.11;73.50;102495.89;111136;1260;22000;-84
2023/01/25 01:48:58;;;;;;;83.00;70.40;;;;;;;2.11;73.56;102494.02;110655;1260;21994;-83
2023/01/25 01:52:02;;;;;;;74.40;66.30;;;;;;;2.13;73.61;102498.36;110498;1253;21973;-83
2023/01/25 01:55:35;;;;;;;74.60;64.90;;;;;;;2.10;73.54;102498.09;110647;1264;21983;-82
2023/01/25 01:58:32;;;;;;;67.30;59.10;;;;;;;2.09;73.64;102497.91;110654;1265;21978;-82
2023/01/25 02:01:20;;;;;;;73.40;62.20;;;;;;;2.05;73.47;102498.48;109886;1272;23057;-82
2023/01/25 02:04:16;;;;;;;73.00;61.80;;;;;;;2.04;73.65;102492.42;109580;1271;23035;-82
2023/01/25 02:07:54;;;;;;;;;;;;;;;;;;;;;
2023/01/25 02:11:22;;;;;;;74.30;61.40;;;;;;;2.01;73.46;102495.42;110230;1268;22747;-83
2023/01/25 02:14:29;;;;;;;74.80;63.40;;;;;;;1.97;73.61;102495.79;110168;1265;21982;-83
2023/01/25 02:17:22;;;;;;;67.50;58.10;;;;;;;1.97;73.65;102492.04;109447;1275;23042;-83
2023/01/25 02:20:42;;;;;;;71.20;59.80;;;;;;;1.96;73.59;102487.70;109349;1272;23641;-83
2023/01/25 02:24:07;;;;;;;80.70;66.50;;;;;;;1.95;73.61;102486.10;109657;1273;21689;-83
2023/01/25 02:26:50;;;;;;;80.30;68.40;;;;;;;1.94;73.69;102481.61;109474;1273;22762;-83
2023/01/25 02:29:56;;;;;;;79.10;66.30;;;;;;;1.92;73.59;102483.46;109497;1268;21983;-82
2023/01/25 02:32:52;;;;;;;82.60;65.90;;;;;;;1.91;73.61;102482.41;109682;1273;22243;-83
2023/01/25 02:36:06;;;;;;;75.90;63.80;;;;;;;1.91;73.61;102482.54;109534;1272;23708;-82
2023/01/25 02:39:26;;;;;;;79.40;65.40;;;;;;;1.92;73.83;102476.60;109154;1278;22849;-82
2023/01/25 02:42:10;;;;;;;74.20;64.00;;;;;;;1.95;73.85;102469.81;109201;1278;23001;-82
2023/01/25 02:45:06;;;;;;;75.30;65.40;;;;;;;1.98;73.79;102468.87;109149;1274;22027;-83
2023/01/25 02:47:58;;;;;;;77.30;63.70;;;;;;;1.98;73.63;102469.23;109872;1268;21980;-82
2023/01/25 02:50:34;;;;;;;73.00;65.00;;;;;;;2.01;73.66;102463.13;109790;1268;21991;-83
2023/01/25 02:53:35;;;;;;;;;;;;;;;;;;;;;
2023/01/25 02:56:07;;;;;;;84.90;68.40;;;;;;;2.05;73.71;102460.14;111133;1255;22960;-83
2023/01/25 02:59:04;;;;;;;79.10;65.50;;;;;;;2.04;73.66;102460.14;111289;1255;21957;-82
2023/01/25 03:01:55;;;;;;;81.40;67.50;;;;;;;2.03;73.71;102455.28;110756;1260;22719;-82
2023/01/25 03:05:30;;;;;;;;;;;;;;;;;;;;;
2023/01/25 03:08:19;;;;;;;85.90;68.00;;;;;;;2.02;73.73;102440.13;110980;1260;21977;-83
2023/01/25 03:11:04;;;;;;;79.60;67.70;;;;;;;2.02;73.75;102433.09;111069;1260;21970;-82
2023/01/25 03:13:48;;;;;;;;;;;;;;;;;;;;;
2023/01/25 03:16:28;;;;;;;78.90;66.40;;;;;;;2.04;73.65;102429.38;111057;1260;21980;-82
2023/01/25 03:19:19;;;;;;;76.20;65.70;;;;;;;2.05;73.64;102427.00;110921;1257;21975;-83
2023/01/25 03:22:09;;;;;;;72.60;62.80;;;;;;;2.06;73.78;102426.35;110863;1260;23043;-82
2023/01/25 03:25:34;;;;;;;71.10;60.30;;;;;;;2.02;73.61;102422.79;111067;1260;22943;-82
2023/01/25 03:28:46;;;;;;;70.00;61.70;;;;;;;1.98;73.70;102421.30;111350;1255;21958;-83
2023/01/25 03:31:48;;;;;;;;;;;;;;;;;;;;;
2023/01/25 03:34:44;;;;;;;73.40;59.50;;;;;;;1.97;73.88;102413.54;110853;1260;21977;-83
2023/01/25 03:37:28;;;;;;;74.30;63.40;;;;;;;1.97;73.85;102404.61;110972;1260;22502;-82
2023/01/25 03:40:47;;;;;;;77.10;66.10;;;;;;;1.95;73.86;102397.86;110236;1268;23638;-84
2023/01/25 03:43:58;;;;;;;70.70;60.20;;;;;;;1.91;73.74;102397.07;110263;1268;22029;-82
2023/01/25 03:46:53;;;;;;;76.80;65.60;;;;;;;1.88;73.74;102395.61;109543;1268;22024;-83
2023/01/25 03:49:35;;;;;;;73.20;62.10;;;;;;;1.89;73.83;102394.09;109404;1272;21984;-84
2023/01/25 03:52:33;;;;;;;;;;;;;;;;;;;;;
2023/01/25 03:55:31;;;;;;;78.20;66.10;;;;;;;1.93;73.92;102393.50;109569;1267;23023;-83
2023/01/25 03:58:34;;;;;;;73.50;63.90;;;;;;;1.93;73.94;102388.02;110580;1261;22763;-83
2023/01/25 04:01:50;;;;;;;73.60;62.10;;;;;;;1.92;73.93;102382.66;110832;1261;21965;-83
2023/01/25 04:04:46;;;;;;;72.80;64.80;;;;;;;1.87;73.82;102380.95;110772;1261;21959;-82
2023/01/25 04:07:40;;;;;;;;;;;;;;;;;;;;;
2023/01/25 04:10:54;;;;;;;;;;;;;;;;;;;;;
2023/01/25 04:17:11;;;;;;;72.10;61.20;;;;;;;1.81;73.88;102375.64;111030;1257;21994;-82
2023/01/25 04:20:13;;;;;;;71.70;61.70;;;;;;;1.82;74.05;102375.14;110923;1260;22050;-84
2023/01/25 04:22:49;;;;;;;75.70;63.80;;;;;;;1.83;73.92;102372.60;110848;1261;23689;-84
2023/01/25 04:25:47;;;;;;;;;;;;;;;;;;;;;
2023/01/25 04:29:11;;;;;;;88.10;66.90;;;;;;;1.84;74.07;102368.67;110793;1261;21989;-82
2023/01/25 04:32:08;;;;;;;68.10;60.50;;;;;;;1.84;74.19;102365.41;110552;1257;24172;-78
2023/01/25 04:35:28;;;;;;;67.80;57.90;;;;;;;1.84;74.10;102356.99;110488;1261;23593;-76
2023/01/25 04:38:27;;;;;;;67.80;57.70;;;;;;;1.85;74.27;102352.23;110530;1261;23110;-77
2023/01/25 04:41:25;;;;;;;;;;;;;;;;;;;;;
2023/01/25 04:44:11;;;;;;;67.30;58.10;;;;;;;1.84;74.00;102354.44;110630;1261;23072;-77
2023/01/25 04:47:08;;;;;;;64.40;57.40;;;;;;;1.84;74.18;102356.15;110333;1261;23625;-76
2023/01/25 04:50:34;;;;;;;68.50;59.50;;;;;;;1.84;74.31;102358.55;110560;1260;23726;-75
2023/01/25 04:53:32;;;;;;;63.90;55.40;;;;;;;1.85;74.40;102357.21;110653;1255;22956;-75
2023/01/25 04:56:35;;;;;;;64.30;54.60;;;;;;;1.87;74.31;102360.52;110816;1255;21982;-76
2023/01/25 04:59:42;;;;;;;61.30;54.60;;;;;;;1.87;74.37;102360.02;110991;1248;23034;-78
2023/01/25 05:02:30;;;;;;;64.90;57.40;;;;;;;1.86;74.24;102357.07;110882;1255;21983;-76
2023/01/25 05:05:32;;;;;;;73.60;63.10;;;;;;;1.85;74.18;102352.89;111015;1254;23737;-75
2023/01/25 05:08:49;;;;;;;69.30;61.70;;;;;;;1.83;74.32;102350.63;110978;1255;21958;-75
2023/01/25 05:11:56;;;;;;;75.10;62.40;;;;;;;1.81;74.39;102347.64;110971;1255;22109;-76
2023/01/25 05:15:33;;;;;;;73.90;63.60;;;;;;;1.78;74.36;102346.85;111249;1254;21960;-78
2023/01/25 05:18:21;;;;;;;73.70;63.60;;;;;;;1.78;74.48;102349.61;111155;1254;21960;-75
2023/01/25 05:25:00;;;;;;;80.40;67.20;;;;;;;1.78;74.49;102345.85;110663;1260;23023;-76
2023/01/25 05:28:09;;;;;;;75.60;65.30;;;;;;;1.82;74.69;102341.14;110459;1260;22661;-76
2023/01/25 05:31:59;;;;;;;81.70;69.70;;;;;;;1.80;74.55;102339.20;110533;1260;21989;-75
2023/01/25 05:34:51;;;;;;;84.00;74.20;;;;;;;1.80;74.65;102334.75;110431;1260;21982;-76
2023/01/25 05:37:37;;;;;;;90.50;80.00;;;;;;;1.77;74.28;102329.67;110198;1265;21975;-75
2023/01/25 05:40:30;;;;;;;90.10;79.10;;;;;;;1.75;74.32;102327.54;110214;1265;22016;-75
2023/01/25 05:43:46;;;;;;;86.80;77.20;;;;;;;1.77;74.53;102322.29;110476;1259;22570;-77
2023/01/25 05:46:33;;;;;;;82.20;73.30;;;;;;;1.79;74.49;102325.95;110701;1253;21975;-76
2023/01/25 05:50:21;;;;;;;83.90;75.10;;;;;;;1.79;74.63;102325.25;110780;1259;21977;-75
2023/01/25 05:53:28;;;;;;;75.60;67.50;;;;;;;1.79;74.41;102321.99;110605;1259;22833;-76
2023/01/25 05:56:29;;;;;;;75.50;67.30;;;;;;;1.81;74.52;102317.27;110563;1259;21983;-75
2023/01/25 05:59:25;;;;;;;73.30;65.50;;;;;;;1.81;74.51;102316.58;110058;1264;21977;-75
2023/01/25 06:02:06;;;;;;;74.10;65.50;;;;;;;1.83;74.52;102315.23;109839;1264;22990;-76
2023/01/25 06:05:14;;;;;;;85.20;76.00;;;;;;;1.84;74.47;102311.49;110207;1263;23026;-75
2023/01/25 06:08:18;;;;;;;75.80;64.10;;;;;;;1.83;74.52;102307.37;110318;1259;21972;-75
2023/01/25 06:11:25;;;;;;;72.80;64.80;;;;;;;1.82;74.54;102302.86;110601;1252;22193;-76
2023/01/25 06:14:47;;;;;;;72.20;61.70;;;;;;;1.82;74.66;102305.09;110475;1260;21964;-76
2023/01/25 06:17:56;;;;;;;73.10;63.80;;;;;;;1.83;74.72;102314.06;110977;1253;24417;-76
2023/01/25 06:21:04;;;;;;;72.40;63.80;;;;;;;1.83;74.64;102314.91;111241;1253;25078;-75
2023/01/25 06:24:42;;;;;;;73.60;63.90;;;;;;;1.83;74.64;102315.77;111197;1253;22184;-77
2023/01/25 06:27:48;;;;;;;;;;;;;;;;;;;;;
2023/01/25 06:30:53;;;;;;;77.50;68.50;;;;;;;1.87;74.56;102316.23;111309;1253;21963;-74
2023/01/25 06:34:06;;;;;;;;;;;;;;;;;;;;;
2023/01/25 06:37:01;;;;;;;85.20;74.90;;;;;;;1.89;74.72;102318.87;111154;1254;23346;-77
2023/01/25 06:40:14;;;;;;;91.00;74.60;;;;;;;1.89;74.69;102319.90;111231;1254;23018;-76
2023/01/25 06:43:07;;;;;;;85.50;76.20;;;;;;;1.91;74.58;102322.86;111166;1254;23686;-75
2023/01/25 06:46:11;;;;;;;84.00;72.80;;;;;;;1.92;74.64;102320.84;109596;1255;1764011;-76
2023/01/25 06:49:15;;;;;;;82.00;69.30;;;;;;;1.91;74.67;102313.77;110996;1255;21987;-75
2023/01/25 06:52:38;;;;;;;80.80;69.50;;;;;;;1.90;74.65;102314.42;111213;1254;22135;-77
2023/01/25 06:56:09;;;;;;;84.90;68.00;;;;;;;1.88;74.70;102309.91;111184;1255;22825;-75
2023/01/25 06:58:49;;;;;;;82.00;68.90;;;;;;;1.86;74.79;102308.66;111220;1255;22106;-77
2023/01/25 07:02:28;;;;;;;76.10;66.80;;;;;;;1.87;74.65;102314.00;111036;1254;22015;-76
2023/01/25 07:05:23;;;;;;;89.40;77.00;;;;;;;1.87;74.66;102313.67;111122;1254;22712;-76
2023/01/25 07:08:20;;;;;;;88.40;75.90;;;;;;;1.87;74.71;102308.67;110589;1261;23654;-78
2023/01/25 07:11:17;;;;;;;87.50;73.80;;;;;;;1.88;74.81;102304.58;110408;1261;21973;-77
2023/01/25 07:14:28;;;;;;;87.50;72.10;;;;;;;1.89;74.67;102298.77;110523;1260;22250;-76
2023/01/25 07:17:57;;;;;;;79.30;67.30;;;;;;;1.87;74.71;102296.14;110495;1262;21972;-76
2023/01/25 07:20:54;;;;;;;89.50;72.30;;;;;;;1.86;74.79;102288.39;110595;1259;21966;-77
2023/01/25 07:23:46;;;;;;;;;;;;;;;;;;;;;
2023/01/25 07:27:08;;;;;;;;;;;;;;;;;;;;;
2023/01/25 07:30:14;;;;;;;90.70;77.60;;;;;;;1.89;74.76;102288.83;111222;1255;23589;-74
2023/01/25 07:33:05;;;;;;;93.40;75.70;;;;;;;1.91;74.70;102287.84;110961;1255;22737;-75
2023/01/25 07:35:41;;;;;;;87.40;75.20;;;;;;;1.90;74.61;102280.61;110954;1255;22234;-74
2023/01/25 07:38:14;;;;;;;85.00;71.10;;;;;;;1.92;74.73;102276.20;110619;1260;21990;-74
2023/01/25 07:40:52;;;;;;;80.20;69.20;;;;;;;1.95;74.93;102270.42;110431;1260;22876;-74
2023/01/25 07:43:29;;;;;;;86.50;70.80;;;;;;;1.97;74.90;102265.52;110647;1260;22639;-74
2023/01/25 07:46:15;;;;;;;78.60;65.80;;;;;;;1.98;74.75;102263.85;110683;1260;23340;-73
2023/01/25 07:48:53;;;;;;;72.50;63.30;;;;;;;1.99;74.80;102270.89;110602;1260;23085;-73
2023/01/25 07:51:29;;;;;;;74.40;64.40;;;;;;;2.01;74.71;102269.22;110610;1260;23321;-73
2023/01/25 07:54:05;;;;;;;77.20;67.70;;;;;;;2.02;74.71;102268.92;110681;1260;22725;-72
2023/01/25 07:56:39;;;;;;;91.20;75.20;;;;;;;2.03;74.72;102265.69;110883;1255;21985;-72
2023/01/25 07:59:19;;;;;;;102.00;80.60;;;;;;;2.03;74.61;102264.48;110496;1257;21934;-73
2023/01/25 08:01:56;;;;;;;95.30;76.40;;;;;;;2.03;74.71;102258.30;109652;1268;23643;-73
2023/01/25 08:04:37;;;;;;;87.60;72.60;;;;;;;2.04;74.74;102261.08;109725;1268;23033;-73
2023/01/25 08:07:16;;;;;;;87.70;69.80;;;;;;;2.04;74.67;102253.52;109684;1268;21983;-74
2023/01/25 08:09:57;;;;;;;84.40;68.40;;;;;;;2.05;74.63;102245.32;109810;1268;23728;-73
2023/01/25 08:12:36;;;;;;;87.90;67.80;;;;;;;2.06;74.71;102240.70;109728;1268;21977;-74
2023/01/25 08:15:18;;;;;;;82.90;71.60;;;;;;;2.09;74.67;102237.34;109929;1268;21975;-74
2023/01/25 08:17:54;;;;;;;84.70;70.20;;;;;;;2.10;74.61;102229.48;110046;1261;22435;-73
2023/01/25 08:20:36;;;;;;;81.10;67.60;;;;;;;2.08;74.37;102230.80;110898;1254;23797;-73
2023/01/25 08:23:15;;;;;;;80.40;70.70;;;;;;;2.09;74.49;102230.98;111206;1254;22633;-73
2023/01/25 08:26:09;;;;;;;81.60;69.90;;;;;;;2.10;74.48;102223.64;111135;1255;23612;-74
2023/01/25 08:28:44;;;;;;;80.50;69.50;;;;;;;2.12;74.52;102213.55;110908;1254;22229;-73
2023/01/25 08:31:28;;;;;;;84.20;74.10;;;;;;;2.13;74.47;102207.92;110870;1254;23606;-73
2023/01/25 08:34:01;;;;;;;94.50;79.40;;;;;;;2.15;74.50;102203.86;111183;1253;21980;-73
2023/01/25 08:36:37;;;;;;;85.50;73.20;;;;;;;2.20;74.60;102203.11;111248;1253;23638;-74
2023/01/25 08:39:39;;;;;;;97.90;84.50;;;;;;;2.24;74.69;102203.73;111139;1249;22882;-74
2023/01/25 08:42:31;;;;;;;89.10;75.90;;;;;;;2.27;74.58;102210.17;111235;1253;21959;-73
2023/01/25 08:45:23;;;;;;;88.20;72.10;;;;;;;2.30;74.64;102214.70;110844;1257;22852;-74
2023/01/25 08:48:05;;;;;;;86.60;70.90;;;;;;;2.31;74.53;102207.00;110912;1257;21982;-73
2023/01/25 08:50:59;;;;;;;80.30;68.80;;;;;;;2.31;74.38;102201.67;110915;1257;21971;-73
2023/01/25 08:53:37;;;;;;;86.90;69.40;;;;;;;2.30;74.29;102206.11;110846;1257;21960;-73
2023/01/25 08:56:20;;;;;;;91.10;70.70;;;;;;;2.32;74.39;102207.02;110959;1257;22718;-73
2023/01/25 08:59:02;;;;;;;83.20;69.10;;;;;;;2.30;74.25;102203.19;110842;1258;23703;-72
2023/01/25 09:01:44;;;;;;;73.80;63.50;;;;;;;2.30;74.27;102201.66;110860;1258;23591;-74
2023/01/25 09:04:52;;;;;;;75.30;59.40;;;;;;;2.31;74.30;102205.45;110816;1258;22719;-74
2023/01/25 09:07:36;;;;;;;62.00;52.30;;;;;;;2.34;74.50;102210.17;110632;1258;23020;-72
2023/01/25 09:10:20;;;;;;;63.00;55.20;;;;;;;2.39;74.50;102206.16;111046;1254;21968;-72
2023/01/25 09:13:05;;;;;;;60.90;52.00;;;;;;;2.45;74.67;102201.35;111092;1254;21970;-74
2023/01/25 09:15:45;;;;;;;64.50;53.60;;;;;;;2.48;74.46;102200.08;111061;1251;21956;-76
2023/01/25 09:18:33;;;;;;;64.30;55.30;;;;;;;2.49;74.34;102204.89;111191;1253;21969;-76
2023/01/25 09:21:15;;;;;;;63.60;50.90;;;;;;;2.45;74.14;102206.52;111165;1253;22943;-75
2023/01/25 09:23:50;;;;;;;60.80;51.90;;;;;;;2.44;74.12;102205.10;111162;1253;23010;-75
2023/01/25 09:26:41;;;;;;;61.90;52.00;;;;;;;2.43;74.15;102201.11;111208;1253;24291;-75
2023/01/25 09:29:29;;;;;;;68.80;49.60;;;;;;;2.44;74.14;102194.95;111292;1253;22441;-75
2023/01/25 09:32:09;;;;;;;59.60;48.30;;;;;;;2.44;74.00;102195.48;111203;1253;22050;-80
2023/01/25 09:35:10;;;;;;;;;;;;;;;2.44;74.03;102193.42;111552;1253;23599;-79
2023/01/25 09:38:21;;;;;;;64.20;48.20;;;;;;;2.38;74.26;102186.22;111308;1254;21940;-81
2023/01/25 09:41:18;;;;;;;61.50;50.60;;;;;;;2.38;74.34;102179.85;111460;1254;21962;-78
2023/01/25 09:44:38;;;;;;;51.10;42.20;;;;;;;2.44;74.38;102174.85;111512;1250;22415;-78
2023/01/25 09:47:52;;;;;;;46.10;40.00;;;;;;;2.50;74.33;102171.06;111594;1253;23081;-80
2023/01/25 09:51:15;;;;;;;47.40;40.60;;;;;;;2.55;74.37;102168.44;111501;1253;22010;-79
2023/01/25 09:54:28;;;;;;;56.90;45.70;;;;;;;2.54;74.23;102167.20;111497;1251;21954;-79
2023/01/25 09:57:29;;;;;;;56.00;45.10;;;;;;;2.55;74.21;102170.16;111436;1254;21961;-80
2023/01/25 10:00:39;;;;;;;60.10;49.40;;;;;;;2.57;74.07;102171.05;111032;1259;21965;-77
2023/01/25 10:03:44;;;;;;;54.40;46.70;;;;;;;2.56;73.99;102164.84;110454;1265;23039;-80
2023/01/25 10:06:49;;;;;;;54.90;45.10;;;;;;;2.56;73.97;102165.17;110610;1265;23681;-80
2023/01/25 10:10:07;;;;;;;51.50;44.90;;;;;;;2.55;74.02;102158.12;110152;1265;23028;-81
2023/01/25 10:13:04;;;;;;;61.10;47.80;;;;;;;2.55;73.80;102152.11;110442;1265;23607;-78
2023/01/25 10:15:57;;;;;;;59.80;48.50;;;;;;;2.56;73.85;102148.86;109893;1265;21997;-78
2023/01/25 10:19:50;;;;;;;55.60;44.20;;;;;;;2.57;73.91;102147.33;109930;1268;22013;-80
2023/01/25 10:23:00;;;;;;;54.40;43.30;;;;;;;2.59;73.95;102142.20;110069;1268;21977;-78
2023/01/25 10:26:09;;;;;;;55.60;44.10;;;;;;;2.60;73.83;102138.64;110250;1268;22062;-81
2023/01/25 10:29:37;;;;;;;50.70;40.40;;;;;;;2.61;73.80;102134.36;108979;1278;23047;-80
2023/01/25 10:32:38;;;;;;;60.60;43.00;;;;;;;2.60;73.68;102125.40;109151;1279;22006;-82
2023/01/25 10:36:27;;;;;;;50.20;41.10;;;;;;;2.57;73.76;102113.80;109485;1267;21988;-79
2023/01/25 10:39:53;;;;;;;56.30;44.50;;;;;;;2.58;73.84;102105.94;109887;1267;21976;-80
2023/01/25 10:43:25;;;;;;;58.60;46.00;;;;;;;2.58;73.92;102100.77;109990;1263;21979;-80
2023/01/25 10:46:22;;;;;;;53.60;44.40;;;;;;;2.63;74.13;102096.77;110146;1257;22984;-79
2023/01/25 10:50:04;;;;;;;54.30;42.90;;;;;;;2.66;74.05;102091.49;111346;1255;23080;-79
2023/01/25 10:53:43;;;;;;;49.50;41.60;;;;;;;2.67;73.92;102089.98;110807;1260;23596;-80
2023/01/25 10:56:31;;;;;;;51.60;41.30;;;;;;;2.69;73.93;102084.19;111051;1260;21978;-80
2023/01/25 10:59:25;;;;;;;57.50;42.50;;;;;;;2.75;73.78;102079.66;110386;1266;21972;-80
2023/01/25 11:02:55;;;;;;;47.80;40.30;;;;;;;2.74;73.58;102075.02;110242;1266;22135;-83
2023/01/25 11:05:59;;;;;;;58.00;46.80;;;;;;;2.67;73.67;102076.92;109662;1270;21995;-82
2023/01/25 11:08:41;;;;;;;53.30;43.70;;;;;;;2.70;73.71;102079.73;109392;1273;21981;-78
2023/01/25 11:12:06;;;;;;;60.80;46.20;;;;;;;2.75;73.90;102078.80;109552;1270;21986;-78
2023/01/25 11:14:58;;;;;;;59.40;46.50;;;;;;;2.81;73.89;102068.11;108735;1274;22137;-77
2023/01/25 11:18:03;;;;;;;65.30;51.70;;;;;;;2.85;73.71;102064.41;109188;1273;22002;-78
2023/01/25 11:20:52;;;;;;;;;;;;;;;;;;;;;
2023/01/25 11:23:50;;;;;;;68.70;52.60;;;;;;;2.84;73.53;102052.02;109372;1273;22003;-79
2023/01/25 11:27:24;;;;;;;64.40;50.70;;;;;;;2.82;73.47;102042.51;109401;1273;22005;-80
2023/01/25 11:30:11;;;;;;;63.60;50.00;;;;;;;2.84;73.53;102038.61;109507;1268;23531;-79
2023/01/25 11:33:29;;;;;;;67.60;51.30;;;;;;;2.86;73.48;102033.15;110136;1268;22047;-79
2023/01/25 11:36:41;;;;;;;67.80;51.60;;;;;;;2.87;73.33;102033.34;110184;1262;21981;-80
2023/01/25 11:40:26;;;;;;;;;;;;;;;;;;;;;
2023/01/25 11:44:21;;;;;;;62.30;45.00;;;;;;;2.87;73.30;102014.58;110021;1272;21963;-78
2023/01/25 11:48:30;;;;;;;62.90;48.70;;;;;;;2.86;73.31;102009.08;109226;1276;22918;-81
2023/01/25 11:51:40;;;;;;;61.90;46.10;;;;;;;2.89;73.35;102004.32;109495;1274;22071;-80
2023/01/25 11:55:47;;;;;;;59.40;44.10;;;;;;;2.95;73.31;102001.66;109396;1268;23039;-83
2023/01/25 11:59:50;;;;;;;52.90;39.90;;;;;;;2.99;73.48;101997.28;109695;1273;21970;-80
2023/01/25 12:03:04;;;;;;;50.30;39.40;;;;;;;3.01;73.32;101982.54;110019;1267;22284;-80
2023/01/25 12:06:16;;;;;;;56.80;41.70;;;;;;;3.03;73.10;101973.63;110228;1269;22161;-78
2023/01/25 12:09:32;;;;;;;59.70;47.20;;;;;;;3.01;72.99;101968.42;109724;1270;22069;-79
2023/01/25 12:13:10;;;;;;;60.80;45.80;;;;;;;2.95;72.92;101961.95;110856;1265;23716;-80
2023/01/25 12:16:17;;;;;;;62.60;44.70;;;;;;;2.88;72.91;101953.56;110614;1265;23593;-81
2023/01/25 12:19:30;;;;;;;62.00;46.60;;;;;;;2.85;72.78;101954.88;110500;1261;22479;-81
2023/01/25 12:22:28;;;;;;;56.10;43.00;;;;;;;2.81;72.73;101948.10;111271;1254;22017;-79
2023/01/25 12:25:20;;;;;;;65.30;50.60;;;;;;;2.80;72.72;101938.96;110897;1261;23034;-80
2023/01/25 12:28:14;;;;;;;63.30;48.70;;;;;;;2.84;72.85;101936.64;110962;1261;21987;-77
2023/01/25 12:34:42;;;;;;;54.50;42.70;;;;;;;2.90;72.73;101927.11;110741;1260;22002;-81
2023/01/25 12:37:35;;;;;;;52.10;40.20;;;;;;;2.91;72.58;101924.21;110975;1260;22581;-79
2023/01/25 12:40:41;;;;;;;49.40;39.90;;;;;;;2.89;72.46;101916.96;110717;1260;22426;-78
2023/01/25 12:43:33;;;;;;;52.60;40.40;;;;;;;2.85;72.28;101915.32;111211;1253;21959;-78
2023/01/25 12:46:23;;;;;;;55.40;41.60;;;;;;;2.83;72.35;101913.41;111257;1253;21971;-79
2023/01/25 12:49:13;;;;;;;56.50;43.90;;;;;;;2.82;72.36;101912.19;111148;1253;21959;-78
2023/01/25 12:52:30;;;;;;;60.30;44.50;;;;;;;2.80;72.46;101910.09;110813;1260;21973;-78
2023/01/25 12:55:25;;;;;;;54.20;41.10;;;;;;;2.74;72.29;101906.01;110217;1267;21993;-79
2023/01/25 12:58:32;;;;;;;53.90;43.00;;;;;;;2.73;72.35;101903.92;110272;1267;21985;-79
2023/01/25 13:01:56;;;;;;;57.40;44.00;;;;;;;2.72;72.42;101903.23;110193;1267;23152;-79
2023/01/25 13:05:43;;;;;;;58.70;44.00;;;;;;;2.72;72.52;101897.20;110131;1266;21976;-78
2023/01/25 13:09:22;;;;;;;58.30;45.30;;;;;;;2.71;72.55;101894.95;110229;1267;21973;-78
2023/01/25 13:12:23;;;;;;;63.70;46.90;;;;;;;2.71;72.58;101891.68;110648;1262;21979;-80
2023/01/25 13:16:17;;;;;;;50.70;41.70;;;;;;;2.73;72.60;101886.56;110720;1262;21967;-79
2023/01/25 13:18:55;;;;;;;54.90;44.60;;;;;;;2.71;72.68;101883.09;110365;1266;22482;-80
2023/01/25 13:21:51;;;;;;;55.80;40.90;;;;;;;2.71;72.52;101878.80;110200;1266;23663;-79
2023/01/25 13:25:04;;;;;;;53.90;43.40;;;;;;;2.71;72.55;101870.36;109464;1271;22252;-79
2023/01/25 13:27:53;;;;;;;53.70;41.10;;;;;;;2.74;72.51;101866.29;109728;1266;21982;-80
2023/01/25 13:30:49;;;;;;;;;;;;;;;2.76;72.52;101860.31;109581;1271;22145;-78
2023/01/25 13:33:42;;;;;;;56.80;41.80;;;;;;;2.68;72.66;101855.53;110310;1265;23648;-79
2023/01/25 13:36:47;;;;;;;50.40;41.60;;;;;;;2.70;72.64;101854.19;109985;1265;22983;-78
2023/01/25 13:39:44;;;;;;;52.40;41.90;;;;;;;2.72;72.68;101855.09;109683;1271;22118;-78
2023/01/25 13:42:38;;;;;;;53.20;41.10;;;;;;;2.77;72.69;101851.39;109787;1271;23652;-77
2023/01/25 13:45:54;;;;;;;59.60;45.40;;;;;;;2.77;72.41;101844.85;109505;1271;21998;-78
2023/01/25 13:48:51;;;;;;;50.00;37.40;;;;;;;2.78;72.46;101841.61;109577;1265;22975;-78
2023/01/25 13:51:41;;;;;;;69.00;54.80;;;;;;;2.77;72.41;101843.48;110143;1266;22012;-80
2023/01/25 13:54:30;;;;;;;49.00;40.40;;;;;;;2.80;72.53;101839.23;110042;1257;21978;-77
2023/01/25 13:57:50;;;;;;;48.20;38.00;;;;;;;2.83;72.53;101839.81;110249;1260;21940;-80
2023/01/25 14:00:33;;;;;;;48.00;39.10;;;;;;;2.83;72.41;101836.89;110215;1267;23634;-79
2023/01/25 14:03:24;;;;;;;50.90;39.00;;;;;;;2.84;72.28;101835.70;110376;1261;23589;-79
2023/01/25 14:06:10;;;;;;;48.80;37.30;;;;;;;2.84;72.28;101828.14;110732;1261;22621;-79
2023/01/25 14:09:06;;;;;;;51.60;40.70;;;;;;;2.84;72.19;101820.59;110759;1262;23043;-79
2023/01/25 14:11:55;;;;;;;54.00;38.90;;;;;;;2.85;72.15;101814.93;110271;1260;22514;-78
2023/01/25 14:14:34;;;;;;;52.30;40.40;;;;;;;2.85;72.25;101814.23;109966;1267;21994;-79
2023/01/25 14:17:24;;;;;;;49.90;38.30;;;;;;;2.84;72.09;101808.71;110153;1267;22123;-78
2023/01/25 14:20:41;;;;;;;54.10;40.40;;;;;;;2.84;71.87;101802.35;109534;1271;23793;-80
2023/01/25 14:23:33;;;;;;;55.30;41.30;;;;;;;2.80;72.02;101797.29;109230;1278;22002;-79
2023/01/25 14:26:41;;;;;;;55.80;43.10;;;;;;;2.80;71.98;101792.31;108483;1284;21995;-80
2023/01/25 14:29:21;;;;;;;56.40;39.70;;;;;;;2.80;72.24;101788.17;108670;1284;22016;-80
2023/01/25 14:32:16;;;;;;;61.30;42.60;;;;;;;2.79;72.23;101786.27;108785;1279;22572;-80